Sewalls Point, Florida
Current Conditions -  °F | °C
As of 10:15 PM on Monday 20 Oct 2014 (Local Time) from KSUA Reporting Station
Clear Clear  
Wind Chill: 72°   Ceiling: Unl
Heat Index: 72°   Visibility: 10mi
Dew Point: 63°   Wind: 0mph
Humidity: 73%   Direction: NA
Pressure: 30"   Gusts: NA
Location:  27.1868°N, 80.2201°W
Report Text: KSUA 210215Z AUTO 00000KT 10SM CLR 22/17 A3000 RMK AO2
Loading
Personal Weather Stations






























Interactive Weather Map
Tropical Storm Tracking
New forecast layout! Learn more

10-Day Weather Forecast

Advertisements
Track Severe Weather on mobile